Time;durP1;ratioP1;P1;durP2;ratioP2;P2;SDS_P1;SDS_P2;PMS_P1;PMS_P2;Temp;Humidity;BMP_temperature;BMP_pressure;BME280_temperature;BME280_humidity;BME280_pressure;Samples;Min_cycle;Max_cycle;Signal;HPM_P1;HPM_P2
2022/07/01 03:00:13;;;;;;;3.33;3.13;;;30.50;44.90;;;;;;6092182;23;45793;31
2022/07/01 03:02:39;;;;;;;3.17;2.90;;;30.60;44.90;;;;;;4864489;28;46043;-61
2022/07/01 03:05:05;;;;;;;3.28;2.97;;;30.60;45.60;;;;;;4863498;29;45584;-60
2022/07/01 03:07:31;;;;;;;3.55;3.25;;;30.60;44.90;;;;;;4879935;29;45220;-60
2022/07/01 03:09:57;;;;;;;3.22;2.95;;;30.60;44.90;;;;;;4892465;28;45888;-60
2022/07/01 03:12:25;;;;;;;3.30;3.00;;;30.50;44.90;;;;;;4897793;28;45381;-61
2022/07/01 03:15:17;;;;;;;3.30;3.00;;;30.50;45.00;;;;;;4894840;28;44989;-60
2022/07/01 03:17:44;;;;;;;3.45;3.15;;;30.60;44.80;;;;;;4892012;28;45283;-60
2022/07/01 03:20:12;;;;;;;3.28;2.97;;;30.50;44.90;;;;;;4879452;29;45241;-60
2022/07/01 03:22:38;;;;;;;3.67;2.90;;;30.50;45.00;;;;;;4877504;28;45483;-60
2022/07/01 03:25:04;;;;;;;3.22;2.92;;;30.50;45.00;;;;;;4895282;28;45489;-58
2022/07/01 03:27:30;;;;;;;3.13;2.83;;;30.50;45.00;;;;;;4889295;28;45197;-59
2022/07/01 03:29:55;;;;;;;3.25;3.05;;;30.50;45.00;;;;;;4892831;28;46101;-59
2022/07/01 03:32:21;;;;;;;2.88;2.67;;;30.50;45.00;;;;;;4888434;28;45502;-61
2022/07/01 03:34:49;;;;;;;2.80;2.60;;;30.50;45.00;;;;;;4895085;28;45795;-61
2022/07/01 03:37:14;;;;;;;3.47;3.17;;;30.50;45.10;;;;;;4898578;28;45154;-60
2022/07/01 03:39:40;;;;;;;3.50;3.05;;;30.50;45.00;;;;;;4880143;29;45993;-60
2022/07/01 03:42:06;;;;;;;2.92;2.72;;;30.50;45.00;;;;;;4896292;28;45197;-60
2022/07/01 03:44:32;;;;;;;3.45;3.15;;;30.50;45.00;;;;;;4878350;29;45525;-60
2022/07/01 03:46:58;;;;;;;2.97;2.78;;;30.50;45.10;;;;;;4899162;28;45320;-58
2022/07/01 03:49:24;;;;;;;2.83;2.63;;;30.50;45.00;;;;;;4895049;28;45238;-59
2022/07/01 03:51:50;;;;;;;2.95;2.75;;;30.50;45.10;;;;;;4878916;29;45422;-59
2022/07/01 03:54:32;;;;;;;3.38;3.08;;;30.50;45.10;;;;;;4892714;28;45264;-58
2022/07/01 03:57:02;;;;;;;3.20;2.97;;;30.50;45.10;;;;;;4897367;28;45349;-58
2022/07/01 03:59:28;;;;;;;2.70;2.50;;;30.50;45.10;;;;;;4893449;28;45504;-60
2022/07/01 04:01:57;;;;;;;3.25;2.97;;;30.50;45.10;;;;;;4890759;28;45205;-60
2022/07/01 04:04:23;;;;;;;3.25;2.92;;;30.50;45.10;;;;;;4897675;28;44962;-59
2022/07/01 04:06:49;;;;;;;3.35;3.00;;;30.50;45.10;;;;;;4897214;28;46239;-59
2022/07/01 04:09:15;;;;;;;2.95;2.75;;;30.50;45.20;;;;;;4877454;29;45939;-61
2022/07/01 04:11:41;;;;;;;3.22;2.92;;;30.50;45.10;;;;;;4895732;28;44856;-59
2022/07/01 04:14:07;;;;;;;3.58;3.28;;;30.50;45.70;;;;;;4870274;29;45696;-61
2022/07/01 04:16:33;;;;;;;3.40;2.85;;;30.50;45.10;;;;;;4870876;28;45086;-60
2022/07/01 04:18:58;;;;;;;2.67;2.47;;;30.50;45.10;;;;;;4875397;29;45546;-61
2022/07/01 04:24:08;;;;;;;3.15;2.83;;;30.50;45.20;;;;;;4891101;28;45572;-59
2022/07/01 04:26:34;;;;;;;2.53;2.33;;;30.50;45.20;;;;;;4891072;28;45036;-61
2022/07/01 04:29:00;;;;;;;3.13;2.80;;;30.50;45.20;;;;;;4893010;28;45387;-59
2022/07/01 04:31:25;;;;;;;2.90;2.70;;;30.50;45.20;;;;;;4889165;28;45542;-60
2022/07/01 04:33:51;;;;;;;2.85;2.65;;;30.50;45.20;;;;;;4893913;28;45251;-59
2022/07/01 04:36:17;;;;;;;3.22;2.92;;;30.50;45.30;;;;;;4894278;28;45310;-59
2022/07/01 04:38:42;;;;;;;2.72;2.53;;;30.50;45.20;;;;;;4895053;28;45906;-59
2022/07/01 04:43:52;;;;;;;2.80;2.60;;;30.50;45.30;;;;;;4892422;28;45419;-60
2022/07/01 04:46:18;;;;;;;4.30;2.75;;;30.40;45.20;;;;;;4893710;28;46235;-60
2022/07/01 04:48:43;;;;;;;3.00;2.80;;;30.50;45.30;;;;;;4895369;28;45963;-60
2022/07/01 04:51:09;;;;;;;2.90;2.70;;;30.40;45.20;;;;;;4892204;28;45267;-61
2022/07/01 04:53:34;;;;;;;3.47;3.15;;;30.40;45.20;;;;;;4893259;28;45250;-60
2022/07/01 04:56:00;;;;;;;3.08;2.80;;;30.40;45.20;;;;;;4871844;29;44734;-60
2022/07/01 04:58:25;;;;;;;3.45;3.05;;;30.40;45.20;;;;;;4894583;28;46158;-60
2022/07/01 05:00:51;;;;;;;2.83;2.63;;;30.50;45.30;;;;;;4890459;28;44678;-58
2022/07/01 05:03:17;;;;;;;2.75;2.55;;;30.40;45.30;;;;;;4896800;28;45496;-59
2022/07/01 05:05:43;;;;;;;3.00;2.80;;;30.40;45.30;;;;;;4893474;28;45430;-60
2022/07/01 05:08:08;;;;;;;3.20;2.92;;;30.40;45.30;;;;;;4896093;28;44849;-59
2022/07/01 05:10:34;;;;;;;2.83;2.47;;;30.40;45.40;;;;;;4873672;28;45041;-61
2022/07/01 05:12:59;;;;;;;2.90;2.70;;;30.40;45.30;;;;;;4894214;28;45486;-58
2022/07/01 05:15:25;;;;;;;2.63;2.42;;;30.40;45.30;;;;;;4893792;29;44713;-59
2022/07/01 05:23:19;;;;;;;2.80;2.60;;;30.40;45.30;;;;;;4897317;28;44901;-59
2022/07/01 05:25:45;;;;;;;2.60;2.40;;;30.40;45.30;;;;;;4896169;28;45493;-59
2022/07/01 05:28:10;;;;;;;4.28;2.40;;;30.40;45.30;;;;;;4895887;28;46059;-61
2022/07/01 05:30:36;;;;;;;2.70;2.50;;;30.40;45.90;;;;;;4898876;28;45345;-60
2022/07/01 05:33:01;;;;;;;2.60;2.40;;;30.40;45.40;;;;;;4878854;29;45342;-61
2022/07/01 05:35:27;;;;;;;2.45;2.25;;;30.30;45.30;;;;;;4901833;28;45525;-59
2022/07/01 05:37:52;;;;;;;2.42;2.22;;;30.30;45.30;;;;;;4903438;28;45271;-60
2022/07/01 05:40:18;;;;;;;2.38;2.17;;;30.30;45.30;;;;;;4896098;28;45539;-59
2022/07/01 05:42:43;;;;;;;3.13;2.30;;;30.30;45.30;;;;;;4895403;28;44977;-60
2022/07/01 05:45:09;;;;;;;2.83;2.63;;;30.30;45.30;;;;;;4891681;28;45317;-61
2022/07/01 05:47:35;;;;;;;3.15;2.85;;;30.30;45.30;;;;;;4897305;28;47060;-60
2022/07/01 05:50:00;;;;;;;2.20;2.00;;;30.30;45.20;;;;;;4900924;28;45410;-60
2022/07/01 05:52:26;;;;;;;3.30;3.00;;;30.30;45.20;;;;;;4900578;28;45402;-60
2022/07/01 05:54:52;;;;;;;2.50;2.30;;;30.30;45.20;;;;;;4896452;28;45005;-60
2022/07/01 05:57:17;;;;;;;2.70;2.50;;;30.30;45.20;;;;;;4900639;28;45298;-60
2022/07/01 05:59:43;;;;;;;2.25;2.05;;;30.30;45.20;;;;;;4898570;28;45563;-60
2022/07/01 06:02:08;;;;;;;2.30;2.17;;;30.30;45.20;;;;;;4894742;28;45598;-60
2022/07/01 06:04:34;;;;;;;2.47;2.28;;;30.30;45.60;;;;;;4899097;28;45234;-58
2022/07/01 06:06:59;;;;;;;2.67;2.47;;;30.30;45.20;;;;;;4901150;28;45430;-60
2022/07/01 06:09:25;;;;;;;3.75;2.55;;;30.30;45.20;;;;;;4896083;28;45267;-59
2022/07/01 06:11:51;;;;;;;2.55;2.35;;;30.30;45.20;;;;;;4883459;29;45313;-60
2022/07/01 06:14:16;;;;;;;2.80;2.60;;;30.30;45.20;;;;;;4898920;28;45767;-59
2022/07/01 06:16:42;;;;;;;2.50;2.30;;;30.30;45.20;;;;;;4881378;29;45509;-60
2022/07/01 06:19:07;;;;;;;2.50;2.30;;;30.30;45.20;;;;;;4898557;28;45288;-61
2022/07/01 06:21:33;;;;;;;2.10;2.00;;;30.30;45.10;;;;;;4879493;29;45231;-59
2022/07/01 06:23:59;;;;;;;1.95;1.85;;;30.30;45.10;;;;;;4903108;28;45221;-59
2022/07/01 06:26:24;;;;;;;2.60;2.40;;;30.30;45.10;;;;;;4895285;28;46938;-61
2022/07/01 06:28:50;;;;;;;2.58;2.38;;;30.30;45.20;;;;;;4893961;28;45176;-58
2022/07/01 06:31:15;;;;;;;2.10;1.90;;;30.30;45.20;;;;;;4894560;28;45532;-60
2022/07/01 06:33:41;;;;;;;2.15;2.03;;;30.30;45.20;;;;;;4889542;29;44948;-60
2022/07/01 06:36:07;;;;;;;2.60;2.40;;;30.30;45.20;;;;;;4897246;28;44955;-59
2022/07/01 06:38:32;;;;;;;2.35;2.20;;;30.30;45.20;;;;;;4893211;28;45311;-59
2022/07/01 06:43:43;;;;;;;2.35;2.15;;;30.30;45.20;;;;;;4897396;28;45380;-60
2022/07/01 06:46:09;;;;;;;3.15;2.85;;;30.30;45.20;;;;;;4881956;29;46190;-61
2022/07/01 06:48:35;;;;;;;1.88;1.77;;;30.30;45.20;;;;;;4901854;28;44640;-59
2022/07/01 06:51:04;;;;;;;2.35;2.13;;;30.30;45.10;;;;;;4897891;28;45508;-61
2022/07/01 06:53:29;;;;;;;1.88;1.77;;;30.30;45.20;;;;;;4898066;28;45178;-60
2022/07/01 06:55:56;;;;;;;2.20;2.05;;;30.20;45.10;;;;;;4901137;28;47131;-59
2022/07/01 06:58:21;;;;;;;2.45;2.25;;;30.20;45.10;;;;;;4883879;29;45045;-61
2022/07/01 07:00:47;;;;;;;2.17;2.05;;;30.30;45.10;;;;;;4899501;28;45469;-61
2022/07/01 07:03:12;;;;;;;2.10;1.90;;;30.30;45.10;;;;;;4898078;28;45604;-61
2022/07/01 07:05:38;;;;;;;2.42;2.22;;;30.30;45.10;;;;;;4895074;28;46325;-60
2022/07/01 07:08:03;;;;;;;2.55;2.13;;;30.20;45.10;;;;;;4896644;28;45305;-61
2022/07/01 07:10:29;;;;;;;2.15;1.85;;;30.20;45.10;;;;;;4892938;28;45055;-60
2022/07/01 07:12:55;;;;;;;2.30;2.15;;;30.20;45.10;;;;;;4891414;29;45301;-59
2022/07/01 07:15:20;;;;;;;2.53;1.92;;;30.20;45.10;;;;;;4890205;28;45906;-61
2022/07/01 07:17:46;;;;;;;2.20;2.10;;;30.20;45.00;;;;;;4895316;28;45533;-62
2022/07/01 07:20:11;;;;;;;2.00;1.88;;;30.20;45.00;;;;;;4897755;29;44740;-62
2022/07/01 07:22:37;;;;;;;2.33;2.05;;;30.20;45.10;;;;;;4883868;28;45583;-61
2022/07/01 07:25:03;;;;;;;2.00;1.90;;;30.20;45.10;;;;;;4892702;28;46243;-62
2022/07/01 07:27:28;;;;;;;2.15;1.95;;;30.20;45.00;;;;;;4898007;28;45387;-61
2022/07/01 07:29:54;;;;;;;2.33;2.13;;;30.20;45.10;;;;;;4897584;28;44867;-60
2022/07/01 07:32:19;;;;;;;1.83;1.70;;;30.20;45.10;;;;;;4891245;28;45427;-61
2022/07/01 07:34:45;;;;;;;2.10;2.00;;;30.10;45.00;;;;;;4896296;28;46515;-61
2022/07/01 07:37:11;;;;;;;2.15;1.95;;;30.20;45.70;;;;;;4892054;28;45440;-58
2022/07/01 07:39:36;;;;;;;2.15;1.95;;;30.20;45.00;;;;;;4889642;28;45029;-60
2022/07/01 07:42:03;;;;;;;2.10;1.88;;;30.20;45.00;;;;;;4896883;28;45338;-60
2022/07/01 07:44:29;;;;;;;2.60;2.00;;;30.10;45.00;;;;;;4894399;28;46027;-60
2022/07/01 07:46:54;;;;;;;1.70;1.60;;;30.20;45.00;;;;;;4876231;29;45537;-60
2022/07/01 07:49:20;;;;;;;2.30;2.10;;;30.10;45.00;;;;;;4896905;28;45243;-60
2022/07/01 07:51:45;;;;;;;2.22;1.70;;;30.10;44.90;;;;;;4895626;28;45487;-60
2022/07/01 07:54:11;;;;;;;1.80;1.65;;;30.20;44.90;;;;;;4896092;28;45426;-60
2022/07/01 07:56:36;;;;;;;2.10;2.00;;;30.20;44.90;;;;;;4894366;28;45802;-61
2022/07/01 07:59:02;;;;;;;1.80;1.70;;;30.10;44.90;;;;;;4879803;29;45134;-61
2022/07/01 08:01:28;;;;;;;1.90;1.80;;;30.20;44.90;;;;;;4893761;28;45511;-60
2022/07/01 08:03:54;;;;;;;1.67;1.58;;;30.10;44.80;;;;;;4890871;28;46056;-60
2022/07/01 08:06:20;;;;;;;2.08;1.90;;;30.10;44.90;;;;;;4894624;28;45254;-60
2022/07/01 08:08:46;;;;;;;2.00;1.90;;;30.10;44.90;;;;;;4898742;28;45295;-60
2022/07/01 08:11:12;;;;;;;2.13;2.03;;;30.10;44.80;;;;;;4878523;28;45174;-60
2022/07/01 08:13:37;;;;;;;1.92;1.58;;;30.10;44.80;;;;;;4894530;28;46138;-60
2022/07/01 08:16:03;;;;;;;1.77;1.67;;;30.10;44.70;;;;;;4874567;29;45290;-59
2022/07/01 08:18:29;;;;;;;1.73;1.63;;;30.10;44.70;;;;;;4899397;28;45091;-61
2022/07/01 08:20:55;;;;;;;2.17;1.98;;;30.10;44.80;;;;;;4891037;28;45142;-60
2022/07/01 08:23:21;;;;;;;1.88;1.77;;;30.10;44.80;;;;;;4894533;28;46153;-62
2022/07/01 08:25:47;;;;;;;2.22;2.00;;;30.10;44.80;;;;;;4895223;28;44945;-59
2022/07/01 08:28:13;;;;;;;1.80;1.70;;;30.10;44.80;;;;;;4893970;28;44905;-58
2022/07/01 08:30:39;;;;;;;1.80;1.63;;;30.10;44.80;;;;;;4897536;28;45504;-60
2022/07/01 08:33:04;;;;;;;1.60;1.50;;;30.10;44.80;;;;;;4902949;28;46148;-60
2022/07/01 08:35:30;;;;;;;1.85;1.73;;;30.10;44.70;;;;;;4888812;28;45254;-56
2022/07/01 08:37:56;;;;;;;1.60;1.50;;;30.10;44.70;;;;;;4892120;28;45061;-59
2022/07/01 08:40:31;;;;;;;3.22;1.70;;;30.10;44.70;;;;;;4872627;28;45194;-60
2022/07/01 08:43:01;;;;;;;1.95;1.75;;;30.10;44.70;;;;;;4890203;28;45263;-61
2022/07/01 08:45:28;;;;;;;2.15;1.95;;;30.10;44.70;;;;;;4895451;28;45460;-60
2022/07/01 08:48:00;;;;;;;1.80;1.70;;;30.10;44.70;;;;;;4888345;28;45280;-62
2022/07/01 08:50:52;;;;;;;1.90;1.80;;;30.10;44.70;;;;;;4894212;28;44890;-61
2022/07/01 08:53:18;;;;;;;1.88;1.70;;;30.10;44.50;;;;;;4896690;28;45219;-60
2022/07/01 08:58:27;;;;;;;1.80;1.70;;;30.10;44.70;;;;;;4896175;28;45638;-60
2022/07/01 09:00:53;;;;;;;1.38;1.27;;;30.10;44.60;;;;;;4896478;28;45236;-60
2022/07/01 09:03:22;;;;;;;1.83;1.70;;;30.10;44.70;;;;;;4895663;28;47009;-60
2022/07/01 09:05:51;;;;;;;2.22;1.60;;;30.10;44.70;;;;;;4895786;28;45518;-59
2022/07/01 09:08:17;;;;;;;1.50;1.40;;;30.00;44.70;;;;;;4894434;28;45540;-59
2022/07/01 09:10:42;;;;;;;2.08;1.98;;;30.10;44.70;;;;;;4900278;28;46280;-60
2022/07/01 09:13:10;;;;;;;1.60;1.50;;;30.10;44.70;;;;;;4882447;28;46303;-60
2022/07/01 09:15:37;;;;;;;1.70;1.60;;;30.10;44.70;;;;;;4895836;28;45545;-60
2022/07/01 09:18:13;;;;;;;1.60;1.40;;;30.10;44.60;;;;;;4899914;28;45272;-60
2022/07/01 09:20:43;;;;;;;1.70;1.60;;;30.10;44.50;;;;;;4875096;29;45227;-60
2022/07/01 09:23:13;;;;;;;1.98;1.77;;;30.10;44.50;;;;;;4890855;28;46083;-61
2022/07/01 09:25:48;;;;;;;1.58;1.48;;;30.10;44.60;;;;;;4897643;28;45174;-59
2022/07/01 09:28:19;;;;;;;1.80;1.70;;;30.10;44.50;;;;;;4876997;29;45343;-61
2022/07/01 09:30:48;;;;;;;1.80;1.63;;;30.00;44.60;;;;;;4895682;28;45502;-59
2022/07/01 09:33:17;;;;;;;1.75;1.65;;;30.00;44.60;;;;;;4883962;28;45966;-60
2022/07/01 09:35:43;;;;;;;1.70;1.52;;;30.10;44.60;;;;;;4892753;28;45034;-59
2022/07/01 09:38:14;;;;;;;1.88;1.73;;;30.10;44.50;;;;;;4895217;28;45239;-58
2022/07/01 09:40:59;;;;;;;1.90;1.80;;;30.10;44.60;;;;;;4897473;28;45050;-60
2022/07/01 09:43:33;;;;;;;1.95;1.83;;;30.10;44.50;;;;;;4879945;28;46303;-60
2022/07/01 09:46:00;;;;;;;1.65;1.42;;;30.00;44.50;;;;;;4892122;28;45504;-61
2022/07/01 09:48:47;;;;;;;1.90;1.75;;;30.00;44.60;;;;;;4894198;28;45323;-59
2022/07/01 09:51:13;;;;;;;1.65;1.55;;;30.00;44.50;;;;;;4898347;28;45223;-61
2022/07/01 09:53:38;;;;;;;1.83;1.73;;;30.00;44.60;;;;;;4892598;28;45985;-61
2022/07/01 09:56:04;;;;;;;1.80;1.70;;;30.00;45.20;;;;;;4894149;28;45327;-60
2022/07/01 09:58:32;;;;;;;1.85;1.73;;;30.00;44.60;;;;;;4906579;28;45523;-60
2022/07/01 10:00:58;;;;;;;1.98;1.58;;;30.00;44.60;;;;;;4900138;28;45010;-59
2022/07/01 10:03:23;;;;;;;1.50;1.40;;;30.00;44.60;;;;;;4875295;29;46213;-59
2022/07/01 10:05:51;;;;;;;1.48;1.38;;;30.00;44.50;;;;;;4864813;29;45155;-60
2022/07/01 10:08:54;;;;;;;1.77;1.67;;;30.00;44.50;;;;;;4864697;29;44810;-60
2022/07/01 10:11:41;;;;;;;1.70;1.60;;;30.00;44.40;;;;;;4895701;28;45621;-60
2022/07/01 10:14:07;;;;;;;1.67;1.58;;;30.10;44.50;;;;;;4895162;28;46462;-58
2022/07/01 10:16:33;;;;;;;1.70;1.60;;;30.10;44.50;;;;;;4879910;28;45567;-60
2022/07/01 10:18:58;;;;;;;1.92;1.73;;;30.10;44.60;;;;;;4864229;28;45774;-61
2022/07/01 10:21:28;;;;;;;1.70;1.60;;;30.00;44.50;;;;;;4895815;28;45774;-59
2022/07/01 10:24:15;;;;;;;1.80;1.70;;;30.00;44.50;;;;;;4867079;29;46862;-59
2022/07/01 10:26:41;;;;;;;1.65;1.55;;;30.00;44.50;;;;;;4886250;28;45050;-60
2022/07/01 10:29:28;;;;;;;1.58;1.48;;;30.00;44.60;;;;;;4900128;28;45289;-60
2022/07/01 10:31:57;;;;;;;1.58;1.48;;;30.00;44.50;;;;;;4881605;29;45393;-58
2022/07/01 10:34:24;;;;;;;1.50;1.40;;;30.00;44.60;;;;;;4879520;29;45721;-59
2022/07/01 10:37:01;;;;;;;1.48;1.38;;;30.10;44.60;;;;;;4897292;28;45210;-61
2022/07/01 10:39:27;;;;;;;1.30;1.20;;;30.10;44.40;;;;;;4898349;28;45701;-60
2022/07/01 10:41:53;;;;;;;1.60;1.50;;;30.10;44.50;;;;;;4894998;28;45412;-60
2022/07/01 10:44:18;;;;;;;1.48;1.38;;;30.10;44.50;;;;;;4899073;28;45876;-60
2022/07/01 10:46:49;;;;;;;1.58;1.48;;;30.10;44.50;;;;;;4894813;28;45393;-59
2022/07/01 10:49:40;;;;;;;1.63;1.50;;;30.10;44.50;;;;;;4895781;28;45340;-59
2022/07/01 10:52:10;;;;;;;1.38;1.27;;;30.10;44.50;;;;;;4902621;28;45462;-61
2022/07/01 10:54:36;;;;;;;1.92;1.83;;;30.00;45.10;;;;;;4862907;28;45385;-59
2022/07/01 10:57:17;;;;;;;1.50;1.40;;;30.00;44.50;;;;;;4895902;28;46316;-58
2022/07/01 10:59:43;;;;;;;1.88;1.30;;;30.10;44.40;;;;;;4902062;28;45386;-58
2022/07/01 11:02:12;;;;;;;1.67;1.42;;;30.00;44.50;;;;;;4857129;28;1103433;-60
2022/07/01 11:04:38;;;;;;;1.73;1.58;;;30.00;44.40;;;;;;4872972;28;46030;-59
2022/07/01 11:07:04;;;;;;;1.83;1.73;;;30.00;44.50;;;;;;4883540;28;46752;-59
2022/07/01 11:09:29;;;;;;;1.45;1.35;;;30.00;44.60;;;;;;4896958;28;45229;-60
2022/07/01 11:11:55;;;;;;;1.52;1.35;;;30.00;44.60;;;;;;4896436;28;45940;-59
2022/07/01 11:14:20;;;;;;;1.67;1.58;;;29.90;44.60;;;;;;4876344;28;46128;-61
2022/07/01 11:16:46;;;;;;;1.60;1.50;;;30.00;44.60;;;;;;4898564;28;45301;-60
2022/07/01 11:19:11;;;;;;;1.30;1.20;;;30.00;44.60;;;;;;4898720;28;45420;-58
2022/07/01 11:21:37;;;;;;;3.40;1.48;;;30.00;44.60;;;;;;4897937;28;45387;-58
2022/07/01 11:24:07;;;;;;;1.50;1.40;;;30.00;44.60;;;;;;4898079;28;46110;-60
2022/07/01 11:26:33;;;;;;;1.45;1.35;;;30.00;44.50;;;;;;4880717;28;45116;-59
2022/07/01 11:28:59;;;;;;;1.65;1.55;;;29.90;44.50;;;;;;4897222;28;45594;-58
2022/07/01 11:31:31;;;;;;;1.23;1.13;;;30.00;44.60;;;;;;4881234;29;45159;-59
2022/07/01 11:33:57;;;;;;;1.73;1.60;;;30.00;44.50;;;;;;4884912;29;45596;-60
2022/07/01 11:39:22;;;;;;;1.60;1.50;;;29.90;44.50;;;;;;4905949;28;44839;-60
2022/07/01 11:41:52;;;;;;;1.50;1.40;;;30.00;44.60;;;;;;4894083;28;45657;-59
2022/07/01 11:44:29;;;;;;;1.60;1.50;;;30.00;44.60;;;;;;4899214;28;45349;-58
2022/07/01 11:46:54;;;;;;;1.40;1.30;;;30.00;44.50;;;;;;4876496;29;45381;-59
2022/07/01 11:49:23;;;;;;;1.40;1.10;;;29.90;44.50;;;;;;4878056;28;45379;-59
2022/07/01 11:52:05;;;;;;;1.58;1.42;;;30.00;44.60;;;;;;4897965;28;46113;-62
2022/07/01 11:54:35;;;;;;;1.20;1.17;;;30.00;44.50;;;;;;4901290;28;46217;-60
2022/07/01 11:57:18;;;;;;;1.58;1.48;;;30.00;44.50;;;;;;4893319;28;45700;-57
2022/07/01 11:59:45;;;;;;;1.55;1.45;;;30.00;44.40;;;;;;4893049;28;45227;-58
2022/07/01 12:02:12;;;;;;;1.67;1.15;;;30.00;44.50;;;;;;4901099;28;45484;-60
2022/07/01 12:04:38;;;;;;;1.40;1.30;;;30.00;44.40;;;;;;4901750;28;45216;-60
2022/07/01 12:07:04;;;;;;;1.42;1.33;;;30.00;44.50;;;;;;4882784;28;45412;-61
2022/07/01 12:09:30;;;;;;;2.25;1.30;;;29.90;44.50;;;;;;4868443;28;44905;-59
2022/07/01 12:11:56;;;;;;;1.40;1.30;;;30.00;44.60;;;;;;4879741;29;45910;-58
2022/07/01 12:14:25;;;;;;;1.60;1.50;;;29.90;44.50;;;;;;4890669;28;46271;-58
2022/07/01 12:16:53;;;;;;;1.50;1.40;;;29.90;44.50;;;;;;4893305;28;45200;-59
2022/07/01 12:19:18;;;;;;;1.38;1.27;;;29.90;44.50;;;;;;4873115;28;45380;-59
2022/07/01 12:21:52;;;;;;;1.17;1.17;;;29.90;44.50;;;;;;4875864;29;45248;-61
2022/07/01 12:24:19;;;;;;;1.50;1.40;;;30.00;44.50;;;;;;4876838;29;46115;-61
2022/07/01 12:26:57;;;;;;;1.52;1.42;;;29.90;44.50;;;;;;4893705;28;45254;-59
2022/07/01 12:29:23;;;;;;;1.30;1.20;;;29.90;44.40;;;;;;4889588;28;45676;-59
2022/07/01 12:31:55;;;;;;;1.20;1.10;;;29.90;44.50;;;;;;4878057;29;46158;-61
2022/07/01 12:34:21;;;;;;;1.02;1.02;;;29.90;44.50;;;;;;4894743;28;45967;-60
2022/07/01 12:36:48;;;;;;;1.42;1.33;;;29.90;44.50;;;;;;4900370;28;45167;-60
2022/07/01 12:39:13;;;;;;;1.40;1.30;;;29.90;44.50;;;;;;4898155;28;45443;-59
2022/07/01 12:41:40;;;;;;;1.67;1.50;;;29.90;44.50;;;;;;4864548;29;45907;-60
2022/07/01 12:44:19;;;;;;;1.80;1.70;;;29.90;44.50;;;;;;4879046;29;48275;-60
2022/07/01 12:46:45;;;;;;;1.42;1.33;;;29.90;44.50;;;;;;4898511;28;45410;-59
2022/07/01 12:49:21;;;;;;;2.28;1.35;;;29.90;44.50;;;;;;4874808;29;45355;-61
2022/07/01 12:51:47;;;;;;;1.15;1.05;;;29.90;44.40;;;;;;4880679;29;45210;-59
2022/07/01 12:54:32;;;;;;;1.33;1.23;;;29.90;44.50;;;;;;4891923;28;46839;-59
2022/07/01 12:56:58;;;;;;;1.42;1.33;;;29.80;44.40;;;;;;4882121;28;45250;-60
2022/07/01 12:59:23;;;;;;;1.70;1.60;;;29.90;44.60;;;;;;4899974;28;45498;-59
2022/07/01 13:01:49;;;;;;;1.60;1.50;;;29.90;44.50;;;;;;4898872;28;45337;-60
2022/07/01 13:04:26;;;;;;;1.35;1.25;;;29.90;44.50;;;;;;4898506;28;46475;-58
2022/07/01 13:06:51;;;;;;;1.15;1.05;;;29.90;44.40;;;;;;4895765;28;45493;-59
2022/07/01 13:09:17;;;;;;;1.30;1.20;;;29.90;44.50;;;;;;4897585;28;45477;-59
2022/07/01 13:11:42;;;;;;;1.33;1.23;;;29.90;44.60;;;;;;4899309;28;45274;-59
2022/07/01 13:14:08;;;;;;;1.10;1.00;;;29.90;44.60;;;;;;4896143;29;45157;-57
2022/07/01 13:16:33;;;;;;;1.00;1.00;;;29.80;44.50;;;;;;4899998;28;45424;-60
2022/07/01 13:18:59;;;;;;;1.20;1.10;;;29.80;44.50;;;;;;4896977;28;45421;-61
2022/07/01 13:21:25;;;;;;;1.40;1.30;;;29.90;44.50;;;;;;4898830;28;44846;-61
2022/07/01 13:23:50;;;;;;;1.55;1.33;;;29.80;44.50;;;;;;4900674;28;46021;-61
2022/07/01 13:26:16;;;;;;;1.55;1.45;;;29.80;44.50;;;;;;4898341;28;45534;-61
2022/07/01 13:28:41;;;;;;;1.15;1.08;;;29.80;44.50;;;;;;4902902;28;45349;-60
2022/07/01 13:31:07;;;;;;;1.50;1.40;;;29.80;44.50;;;;;;4881588;28;45054;-59
2022/07/01 13:33:32;;;;;;;1.38;1.27;;;29.80;44.50;;;;;;4898159;28;46055;-61
2022/07/01 13:35:58;;;;;;;1.30;1.20;;;29.80;44.50;;;;;;4895887;28;45286;-61
2022/07/01 13:38:23;;;;;;;0.82;0.82;;;29.80;44.60;;;;;;4888636;28;45119;-59
2022/07/01 13:40:49;;;;;;;1.20;1.10;;;29.80;44.60;;;;;;4903956;28;45050;-61
2022/07/01 13:43:16;;;;;;;2.25;1.20;;;29.80;44.70;;;;;;4900867;28;45852;-60
2022/07/01 13:45:42;;;;;;;1.20;1.20;;;29.80;44.60;;;;;;4901650;28;45034;-61
2022/07/01 13:48:07;;;;;;;1.10;1.10;;;29.80;44.60;;;;;;4898050;28;45263;-62
2022/07/01 13:50:33;;;;;;;1.58;1.48;;;29.80;44.60;;;;;;4907941;28;45139;-57
2022/07/01 13:52:59;;;;;;;1.30;1.20;;;29.80;44.50;;;;;;4888044;28;46064;-58
2022/07/01 13:55:24;;;;;;;1.35;1.25;;;29.80;44.50;;;;;;4906246;28;45229;-60
2022/07/01 13:57:50;;;;;;;1.13;1.08;;;29.80;44.50;;;;;;4903298;28;46433;-60
2022/07/01 14:00:16;;;;;;;1.23;1.13;;;29.80;44.50;;;;;;4902151;28;45364;-61
2022/07/01 14:02:42;;;;;;;1.10;0.90;;;29.80;44.50;;;;;;4902132;28;46020;-65
2022/07/01 14:05:08;;;;;;;1.10;1.05;;;29.80;44.50;;;;;;4903091;28;45264;-59
2022/07/01 14:07:34;;;;;;;1.10;1.10;;;29.80;44.50;;;;;;4885845;28;46386;-59
2022/07/01 14:09:59;;;;;;;0.95;0.95;;;29.80;44.60;;;;;;4911218;28;45765;-58
2022/07/01 14:12:25;;;;;;;1.27;1.17;;;29.80;44.50;;;;;;4903074;28;46064;-63
2022/07/01 14:14:51;;;;;;;1.27;1.17;;;29.80;44.50;;;;;;4903966;28;45872;-60
2022/07/01 14:17:17;;;;;;;1.35;1.25;;;29.80;44.50;;;;;;4907056;28;44981;-59
2022/07/01 14:19:43;;;;;;;1.25;1.25;;;29.80;44.50;;;;;;4890037;29;45342;-58
2022/07/01 14:22:08;;;;;;;1.20;1.00;;;29.80;44.50;;;;;;4900665;28;46363;-58
2022/07/01 14:24:34;;;;;;;1.27;1.17;;;29.80;44.50;;;;;;4894415;28;45280;-59
2022/07/01 14:26:59;;;;;;;1.20;1.20;;;29.80;44.50;;;;;;4899808;28;45475;-58
2022/07/01 14:29:25;;;;;;;1.17;1.08;;;29.80;44.50;;;;;;4900175;28;44904;-58
2022/07/01 14:31:50;;;;;;;2.53;1.17;;;29.80;44.50;;;;;;4883969;29;46112;-61
2022/07/01 14:34:16;;;;;;;1.67;0.70;;;29.70;44.30;;;;;;4901358;28;45227;-62
2022/07/01 14:36:42;;;;;;;1.08;0.75;;;29.60;43.50;;;;;;4882371;28;45369;-65
2022/07/01 14:39:07;;;;;;;0.52;0.52;;;29.30;42.80;;;;;;4901816;28;45513;-62
2022/07/01 14:41:33;;;;;;;1.23;0.60;;;29.20;42.80;;;;;;4902313;28;46141;-58
2022/07/01 14:43:58;;;;;;;3.90;0.52;;;29.00;42.70;;;;;;4896195;28;45261;-62
2022/07/01 14:46:24;;;;;;;2.25;0.60;;;28.80;42.70;;;;;;4881888;29;45127;-59
2022/07/01 14:48:49;;;;;;;0.93;0.50;;;28.70;42.70;;;;;;4904529;28;45207;-59
2022/07/01 14:51:15;;;;;;;1.10;0.50;;;28.60;42.50;;;;;;4894660;28;45831;-62
2022/07/01 14:53:40;;;;;;;5.57;0.60;;;28.60;42.40;;;;;;4880248;29;45237;-65
2022/07/01 14:56:06;;;;;;;0.60;0.40;;;28.60;42.40;;;;;;4898500;28;44686;-57
2022/07/01 14:58:31;;;;;;;1.25;0.43;;;28.50;42.30;;;;;;4898162;28;45618;-61
2022/07/01 15:00:57;;;;;;;0.57;0.50;;;28.50;42.20;;;;;;4905837;28;46284;-66
2022/07/01 15:03:23;;;;;;;0.77;0.50;;;28.50;42.80;;;;;;4885006;28;45236;-60
2022/07/01 15:05:48;;;;;;;0.93;0.45;;;28.50;41.90;;;;;;4898402;28;44595;-73
2022/07/01 15:08:14;;;;;;;0.40;0.40;;;28.50;41.80;;;;;;4897371;28;45436;-66
2022/07/01 15:10:40;;;;;;;0.40;0.40;;;28.40;41.60;;;;;;4902909;28;45997;-65
2022/07/01 15:13:05;;;;;;;0.98;0.47;;;28.40;41.50;;;;;;4899196;28;44663;-65
2022/07/01 15:15:31;;;;;;;2.72;0.30;;;28.40;41.60;;;;;;4892918;28;45407;-61
2022/07/01 15:17:57;;;;;;;0.98;0.60;;;28.20;41.50;;;;;;4882407;29;44684;-60
2022/07/01 15:20:22;;;;;;;0.38;0.35;;;28.10;41.60;;;;;;4895198;28;46054;-60
2022/07/01 15:22:48;;;;;;;0.68;0.40;;;28.10;41.60;;;;;;4902089;28;45106;-68
2022/07/01 15:25:16;;;;;;;1.75;0.40;;;28.10;41.40;;;;;;4895137;28;45354;-61
2022/07/01 15:27:42;;;;;;;1.17;0.30;;;28.10;41.60;;;;;;4896073;28;45309;-64
2022/07/01 15:30:08;;;;;;;1.25;0.30;;;28.10;41.40;;;;;;4898049;28;45378;-62
2022/07/01 15:32:34;;;;;;;1.20;0.50;;;28.10;41.30;;;;;;4892975;28;45214;-62
2022/07/01 15:35:02;;;;;;;0.55;0.40;;;28.10;41.20;;;;;;4894619;28;45178;-59
2022/07/01 15:37:27;;;;;;;0.30;0.30;;;28.00;41.30;;;;;;4899282;28;45387;-65
2022/07/01 15:39:54;;;;;;;2.35;0.52;;;28.10;41.40;;;;;;4897513;28;45674;-65
2022/07/01 15:42:21;;;;;;;0.52;0.30;;;28.00;41.20;;;;;;4882199;29;45005;-64
2022/07/01 15:44:47;;;;;;;0.40;0.30;;;28.00;41.40;;;;;;4894708;28;45192;-63
2022/07/01 15:49:57;;;;;;;0.30;0.30;;;27.90;41.30;;;;;;4890795;28;46151;-63
2022/07/01 15:52:22;;;;;;;0.40;0.40;;;27.80;41.30;;;;;;4902010;28;45227;-66
2022/07/01 15:54:48;;;;;;;3.13;0.40;;;27.90;41.30;;;;;;4890139;28;45143;-61
2022/07/01 15:57:14;;;;;;;0.95;0.25;;;28.00;41.20;;;;;;4897960;28;45400;-62
2022/07/01 15:59:39;;;;;;;0.55;0.28;;;27.90;41.10;;;;;;4900211;28;46205;-63
2022/07/01 16:02:05;;;;;;;0.77;0.20;;;27.90;41.10;;;;;;4896156;28;45467;-61
2022/07/01 16:04:43;;;;;;;2.10;0.30;;;27.80;41.00;;;;;;4896035;28;44708;-61
2022/07/01 16:07:08;;;;;;;1.90;0.47;;;27.90;41.10;;;;;;4868602;29;45188;-65
2022/07/01 16:09:36;;;;;;;2.55;0.40;;;27.90;41.10;;;;;;4871858;29;45804;-62